Route Details

Aircraft Information
Group: Hub to Hub
Types: B744, MD11, B763, B762, B752, B738
Route Data
Distance: 2109nm
Duration: 6h 00m
Origin METAR: KJFK 160051Z 12003KT 10SM FEW050 FEW250 22/14 A3000 RMK AO2 SLP158 T02170144
Dest. METAR: KONT 160053Z 24011G17KT 10SM FEW130 FEW200 33/13 A2978 RMK AO2 SLP066 T03330133
Freight Data
(for Aug 16, 2022)
Load Factor:
55%
Manifested Cargo: 108,501lbs
Financial History
Total Freight: 0lbs
Average Load: 0lbs/flt
Fuel Used: 0lbs
Avg. Fuel Used: 0lbs/flt
Fuel Expense: $0
Avg. Fuel Expense: $0
Avg. Fuel Cost: $0/lbs
Total Gross Income: $0
Pilot Pay: $0
Total Expenses: $0
Total Revenue: $0
Average Revenue: $0

Capitol Logistics 401




KJFK
John F Kennedy International Airport
New York, New York
KONT
Ontario International Airport
Ontario, California

Activity Log

Date Flight Route Aircraft Duration
No Flights Yet